Time;durP1;ratioP1;P1;durP2;ratioP2;P2;SDS_P1;SDS_P2;PMS_P1;PMS_P2;Temp;Humidity;BMP_temperature;BMP_pressure;BME280_temperature;BME280_humidity;BME280_pressure;Samples;Min_cycle;Max_cycle;Signal;HPM_P1;HPM_P2
2022/08/21 00:00:48;;;;;;;7.23;5.73;;;;;;;;;;5092781;28;20446;-78
2022/08/21 00:03:15;;;;;;;8.20;5.83;;;;;;;;;;5093208;28;20490;-78
2022/08/21 00:05:44;;;;;;;9.53;5.83;;;;;;;;;;5093313;28;20871;-78
2022/08/21 00:08:11;;;;;;;7.10;5.50;;;;;;;;;;5090470;28;20548;-78
2022/08/21 00:10:40;;;;;;;7.47;6.50;;;;;;;;;;5087799;28;20479;-78
2022/08/21 00:13:08;;;;;;;6.10;5.50;;;;;;;;;;5090115;28;20771;-79
2022/08/21 00:15:36;;;;;;;8.50;5.57;;;;;;;;;;5090736;28;20462;-78
2022/08/21 00:18:04;;;;;;;7.90;6.07;;;;;;;;;;5091863;28;20421;-78
2022/08/21 00:20:32;;;;;;;7.60;5.50;;;;;;;;;;5092393;28;20555;-78
2022/08/21 00:22:59;;;;;;;8.10;5.57;;;;;;;;;;5091313;28;20504;-79
2022/08/21 00:25:27;;;;;;;10.40;5.70;;;;;;;;;;5093102;28;20799;-78
2022/08/21 00:27:56;;;;;;;5.90;5.40;;;;;;;;;;5094123;28;20993;-78
2022/08/21 00:30:25;;;;;;;6.00;5.20;;;;;;;;;;5091077;28;20549;-78
2022/08/21 00:32:54;;;;;;;8.43;5.20;;;;;;;;;;5088054;28;20435;-79
2022/08/21 00:35:23;;;;;;;8.43;5.57;;;;;;;;;;5089812;28;20435;-78
2022/08/21 00:37:50;;;;;;;5.90;5.30;;;;;;;;;;5093667;28;20507;-78
2022/08/21 00:40:19;;;;;;;5.90;5.30;;;;;;;;;;5092033;28;20783;-78
2022/08/21 00:42:46;;;;;;;6.67;5.77;;;;;;;;;;5092112;28;20864;-78
2022/08/21 00:45:15;;;;;;;7.83;6.00;;;;;;;;;;5092156;28;20518;-78
2022/08/21 00:47:42;;;;;;;7.90;5.90;;;;;;;;;;5092817;28;20889;-79
2022/08/21 00:50:11;;;;;;;7.03;5.20;;;;;;;;;;5094078;28;20481;-79
2022/08/21 00:52:39;;;;;;;8.20;6.00;;;;;;;;;;5089376;28;20412;-79
2022/08/21 00:55:08;;;;;;;6.43;5.53;;;;;;;;;;5087447;28;21657;-79
2022/08/21 00:57:39;;;;;;;9.17;6.20;;;;;;;;;;5088210;28;20431;-79
2022/08/21 01:00:08;;;;;;;6.00;4.90;;;;;;;;;;5091542;28;20436;-79
2022/08/21 01:02:37;;;;;;;8.97;6.37;;;;;;;;;;5091620;28;20819;-79
2022/08/21 01:05:04;;;;;;;8.80;5.50;;;;;;;;;;5095376;28;20563;-80
2022/08/21 01:07:32;;;;;;;6.90;5.50;;;;;;;;;;5096104;28;20503;-79
2022/08/21 01:09:59;;;;;;;7.43;5.97;;;;;;;;;;5096578;28;20461;-80
2022/08/21 01:12:27;;;;;;;10.50;6.20;;;;;;;;;;5096743;28;20533;-80
2022/08/21 01:14:54;;;;;;;6.97;6.30;;;;;;;;;;5094402;28;20447;-80
2022/08/21 01:17:22;;;;;;;9.87;5.43;;;;;;;;;;5091316;28;20415;-80
2022/08/21 01:19:51;;;;;;;10.33;5.70;;;;;;;;;;5093666;28;20443;-79
2022/08/21 01:22:19;;;;;;;7.10;5.87;;;;;;;;;;5095406;28;20500;-79
2022/08/21 01:24:47;;;;;;;10.63;5.67;;;;;;;;;;5095191;28;20439;-79
2022/08/21 01:27:14;;;;;;;7.90;5.73;;;;;;;;;;5095648;28;20488;-79
2022/08/21 01:29:44;;;;;;;7.40;6.40;;;;;;;;;;5095643;28;20418;-79
2022/08/21 01:32:13;;;;;;;9.47;6.40;;;;;;;;;;5095286;28;20474;-80
2022/08/21 01:34:41;;;;;;;9.80;6.57;;;;;;;;;;5097015;28;21008;-80
2022/08/21 01:37:08;;;;;;;7.13;5.80;;;;;;;;;;5094128;28;20442;-79
2022/08/21 01:39:37;;;;;;;8.13;6.63;;;;;;;;;;5090891;28;20410;-80
2022/08/21 01:42:05;;;;;;;8.43;5.37;;;;;;;;;;5091898;28;20424;-80
2022/08/21 01:44:32;;;;;;;6.47;5.63;;;;;;;;;;5093749;28;20548;-80
2022/08/21 01:47:01;;;;;;;6.83;6.13;;;;;;;;;;5095211;28;20541;-79
2022/08/21 01:49:28;;;;;;;9.90;6.40;;;;;;;;;;5095024;28;20847;-79
2022/08/21 01:51:56;;;;;;;10.43;5.83;;;;;;;;;;5095067;28;20455;-79
2022/08/21 01:54:23;;;;;;;7.10;6.50;;;;;;;;;;5095878;28;20503;-80
2022/08/21 01:56:53;;;;;;;8.83;6.70;;;;;;;;;;5097070;28;20796;-79
2022/08/21 01:59:21;;;;;;;9.13;6.53;;;;;;;;;;5093764;28;20460;-80
2022/08/21 02:01:48;;;;;;;11.70;6.20;;;;;;;;;;5090370;28;20748;-79
2022/08/21 02:04:16;;;;;;;9.40;5.60;;;;;;;;;;5092393;28;20442;-80
2022/08/21 02:06:43;;;;;;;9.60;5.90;;;;;;;;;;5094667;28;20529;-80
2022/08/21 02:09:12;;;;;;;7.83;5.70;;;;;;;;;;5094634;28;20439;-81
2022/08/21 02:11:40;;;;;;;8.40;6.07;;;;;;;;;;5093385;28;20562;-81
2022/08/21 02:14:09;;;;;;;8.50;7.13;;;;;;;;;;5094674;28;20420;-80
2022/08/21 02:16:36;;;;;;;8.77;6.60;;;;;;;;;;5094216;28;20480;-81
2022/08/21 02:19:03;;;;;;;7.03;5.47;;;;;;;;;;5096325;28;20471;-81
2022/08/21 02:21:31;;;;;;;9.80;6.30;;;;;;;;;;5093236;28;20413;-81
2022/08/21 02:23:58;;;;;;;7.60;6.80;;;;;;;;;;5090457;28;20474;-81
2022/08/21 02:26:26;;;;;;;11.60;6.67;;;;;;;;;;5092217;28;20563;-81
2022/08/21 02:28:53;;;;;;;9.30;6.30;;;;;;;;;;5094143;28;20428;-81
2022/08/21 02:31:21;;;;;;;7.63;6.43;;;;;;;;;;5093871;28;20483;-81
2022/08/21 02:33:48;;;;;;;9.73;6.13;;;;;;;;;;5094183;28;20464;-80
2022/08/21 02:36:16;;;;;;;7.40;6.40;;;;;;;;;;5094294;28;20520;-81
2022/08/21 02:38:43;;;;;;;8.97;6.87;;;;;;;;;;5095119;28;20930;-80
2022/08/21 02:41:12;;;;;;;7.20;6.40;;;;;;;;;;5096212;28;20453;-80
2022/08/21 02:43:39;;;;;;;8.53;6.73;;;;;;;;;;5092745;28;20402;-80
2022/08/21 02:46:07;;;;;;;9.07;6.53;;;;;;;;;;5089378;28;20451;-80
2022/08/21 02:48:36;;;;;;;10.97;6.67;;;;;;;;;;5090926;28;20871;-80
2022/08/21 02:51:06;;;;;;;6.43;5.83;;;;;;;;;;5092598;28;20471;-80
2022/08/21 02:53:34;;;;;;;7.67;6.20;;;;;;;;;;5092536;28;20541;-80
2022/08/21 02:56:01;;;;;;;9.73;7.20;;;;;;;;;;5093680;28;20443;-80
2022/08/21 02:58:31;;;;;;;6.63;5.70;;;;;;;;;;5093777;28;20984;-80
2022/08/21 03:00:59;;;;;;;10.47;6.87;;;;;;;;;;5094637;28;20968;-80
2022/08/21 03:03:26;;;;;;;8.03;6.67;;;;;;;;;;5095738;28;20443;-79
2022/08/21 03:05:55;;;;;;;10.53;7.10;;;;;;;;;;5092182;28;20427;-80
2022/08/21 03:08:23;;;;;;;8.80;7.10;;;;;;;;;;5089116;28;20410;-79
2022/08/21 03:10:51;;;;;;;12.20;7.50;;;;;;;;;;5091129;28;20464;-80
2022/08/21 03:13:20;;;;;;;8.83;7.93;;;;;;;;;;5092164;28;20415;-80
2022/08/21 03:15:47;;;;;;;8.27;7.47;;;;;;;;;;5093219;28;20768;-81
2022/08/21 03:18:14;;;;;;;8.33;6.80;;;;;;;;;;5092273;28;20415;-80
2022/08/21 03:20:42;;;;;;;9.50;7.70;;;;;;;;;;5093368;28;20427;-80
2022/08/21 03:23:11;;;;;;;10.50;8.60;;;;;;;;;;5094397;28;20526;-80
2022/08/21 03:25:39;;;;;;;9.50;8.40;;;;;;;;;;5095051;28;20441;-80
2022/08/21 03:28:07;;;;;;;10.30;8.10;;;;;;;;;;5091903;28;20804;-80
2022/08/21 03:30:34;;;;;;;11.20;9.17;;;;;;;;;;5088772;28;20519;-81
2022/08/21 03:33:02;;;;;;;9.53;8.50;;;;;;;;;;5090750;28;20539;-80
2022/08/21 03:35:29;;;;;;;10.30;8.83;;;;;;;;;;5092912;28;20574;-81
2022/08/21 03:37:57;;;;;;;10.10;7.67;;;;;;;;;;5093130;28;20532;-81
2022/08/21 03:40:25;;;;;;;11.53;9.80;;;;;;;;;;5093062;28;20535;-81
2022/08/21 03:42:53;;;;;;;12.23;9.73;;;;;;;;;;5093151;28;20539;-81
2022/08/21 03:45:20;;;;;;;9.30;8.07;;;;;;;;;;5093720;28;20543;-80
2022/08/21 03:47:55;;;;;;;11.57;9.77;;;;;;;;;;5093608;28;20535;-81
2022/08/21 03:50:23;;;;;;;10.17;9.10;;;;;;;;;;5091608;28;20724;-81
2022/08/21 03:52:50;;;;;;;9.20;8.30;;;;;;;;;;5088607;28;20532;-81
2022/08/21 03:55:17;;;;;;;9.37;8.50;;;;;;;;;;5090295;28;20869;-80
2022/08/21 03:57:46;;;;;;;9.47;8.43;;;;;;;;;;5092528;28;20448;-81
2022/08/21 04:00:14;;;;;;;10.20;9.20;;;;;;;;;;5092428;28;20454;-81
2022/08/21 04:02:42;;;;;;;11.33;7.60;;;;;;;;;;5092442;28;20543;-81
2022/08/21 04:05:09;;;;;;;12.00;8.90;;;;;;;;;;5092504;28;20473;-80
2022/08/21 04:07:37;;;;;;;8.80;7.53;;;;;;;;;;5093294;28;20800;-81
2022/08/21 04:10:04;;;;;;;10.57;8.33;;;;;;;;;;5094556;28;20443;-80
2022/08/21 04:12:31;;;;;;;11.47;7.43;;;;;;;;;;5091304;28;20480;-81
2022/08/21 04:15:01;;;;;;;9.63;7.80;;;;;;;;;;5087909;28;20431;-80
2022/08/21 04:17:28;;;;;;;8.00;7.20;;;;;;;;;;5089757;28;20919;-81
2022/08/21 04:19:56;;;;;;;9.10;7.53;;;;;;;;;;5092114;28;20416;-81
2022/08/21 04:22:23;;;;;;;8.97;7.47;;;;;;;;;;5092063;28;20423;-80
2022/08/21 04:24:50;;;;;;;9.97;7.13;;;;;;;;;;5092078;28;20549;-81
2022/08/21 04:27:18;;;;;;;9.60;7.83;;;;;;;;;;5092265;28;20432;-80
2022/08/21 04:29:45;;;;;;;8.43;7.60;;;;;;;;;;5092964;28;20441;-81
2022/08/21 04:32:13;;;;;;;12.10;6.90;;;;;;;;;;5093953;28;20566;-81
2022/08/21 04:34:40;;;;;;;11.33;7.67;;;;;;;;;;5091079;28;20459;-80
2022/08/21 04:37:08;;;;;;;7.40;6.60;;;;;;;;;;5087691;28;20429;-80
2022/08/21 04:39:35;;;;;;;12.13;7.70;;;;;;;;;;5088867;28;20410;-80
2022/08/21 04:42:02;;;;;;;8.00;7.20;;;;;;;;;;5091614;28;20952;-80
2022/08/21 04:44:30;;;;;;;10.83;6.80;;;;;;;;;;5091438;28;20888;-80
2022/08/21 04:46:58;;;;;;;8.60;7.67;;;;;;;;;;5091911;28;20987;-80
2022/08/21 04:49:26;;;;;;;7.93;7.00;;;;;;;;;;5092478;28;20501;-80
2022/08/21 04:51:53;;;;;;;9.30;6.23;;;;;;;;;;5092562;28;20577;-81
2022/08/21 04:54:22;;;;;;;7.30;6.60;;;;;;;;;;5093826;28;20440;-80
2022/08/21 04:56:51;;;;;;;9.33;7.70;;;;;;;;;;5090546;28;20436;-81
2022/08/21 04:59:20;;;;;;;6.87;6.27;;;;;;;;;;5087257;28;20928;-80
2022/08/21 05:01:48;;;;;;;11.13;8.10;;;;;;;;;;5088076;28;20944;-81
2022/08/21 05:04:17;;;;;;;8.03;6.50;;;;;;;;;;5091559;28;20467;-80
2022/08/21 05:06:47;;;;;;;7.27;6.57;;;;;;;;;;5091552;28;20444;-80
2022/08/21 05:09:16;;;;;;;8.47;6.97;;;;;;;;;;5092080;28;20752;-81
2022/08/21 05:11:43;;;;;;;7.60;6.60;;;;;;;;;;5091754;28;20471;-80
2022/08/21 05:14:11;;;;;;;7.57;6.30;;;;;;;;;;5092262;28;20935;-80
2022/08/21 05:16:38;;;;;;;8.00;5.80;;;;;;;;;;5093669;28;20531;-80
2022/08/21 05:19:06;;;;;;;12.37;7.10;;;;;;;;;;5091474;28;20414;-80
2022/08/21 05:21:33;;;;;;;7.77;7.07;;;;;;;;;;5087271;28;20439;-80
2022/08/21 05:24:02;;;;;;;9.60;6.60;;;;;;;;;;5088467;28;20514;-81
2022/08/21 05:26:29;;;;;;;10.07;7.00;;;;;;;;;;5091371;28;20474;-80
2022/08/21 05:28:57;;;;;;;8.73;6.50;;;;;;;;;;5091309;28;20522;-80
2022/08/21 05:31:24;;;;;;;7.33;6.60;;;;;;;;;;5091218;28;21035;-80
2022/08/21 05:33:51;;;;;;;9.67;6.00;;;;;;;;;;5091681;28;20544;-80
2022/08/21 05:36:19;;;;;;;8.83;7.90;;;;;;;;;;5091875;28;20550;-80
2022/08/21 05:38:46;;;;;;;7.80;6.67;;;;;;;;;;5092284;28;20535;-80
2022/08/21 05:41:15;;;;;;;10.10;5.80;;;;;;;;;;5091641;28;20418;-80
2022/08/21 05:43:42;;;;;;;7.60;6.40;;;;;;;;;;5087030;28;20422;-81
2022/08/21 05:46:09;;;;;;;7.77;6.50;;;;;;;;;;5087875;28;20795;-80
2022/08/21 05:48:37;;;;;;;7.70;6.70;;;;;;;;;;5091028;28;20419;-80
2022/08/21 05:51:06;;;;;;;8.70;5.80;;;;;;;;;;5093003;28;20529;-80
2022/08/21 05:53:33;;;;;;;8.77;5.60;;;;;;;;;;5093545;28;21041;-81
2022/08/21 05:56:03;;;;;;;12.70;6.37;;;;;;;;;;5095358;28;20530;-80
2022/08/21 05:58:32;;;;;;;10.10;6.37;;;;;;;;;;5095362;28;20434;-81
2022/08/21 06:01:00;;;;;;;7.70;6.30;;;;;;;;;;5091766;28;20432;-82
2022/08/21 06:03:28;;;;;;;7.30;6.07;;;;;;;;;;5089282;28;20952;-80
2022/08/21 06:05:55;;;;;;;6.90;5.50;;;;;;;;;;5088831;28;20422;-83
2022/08/21 06:08:23;;;;;;;8.20;5.57;;;;;;;;;;5078206;28;20427;-82
2022/08/21 06:10:51;;;;;;;10.33;6.50;;;;;;;;;;5073858;28;20946;-81
2022/08/21 06:13:20;;;;;;;10.97;7.13;;;;;;;;;;5072975;28;21063;-81
2022/08/21 06:15:49;;;;;;;6.97;5.63;;;;;;;;;;5073355;28;20521;-81
2022/08/21 06:18:17;;;;;;;8.07;6.10;;;;;;;;;;5073355;28;20970;-82
2022/08/21 06:20:44;;;;;;;8.40;5.73;;;;;;;;;;5076094;28;20500;-81
2022/08/21 06:23:12;;;;;;;10.70;5.47;;;;;;;;;;5092811;28;20542;-80
2022/08/21 06:25:39;;;;;;;9.93;6.53;;;;;;;;;;5090143;28;20546;-80
2022/08/21 06:28:08;;;;;;;7.57;5.50;;;;;;;;;;5090113;28;20931;-81
2022/08/21 06:30:36;;;;;;;7.03;5.13;;;;;;;;;;5093428;28;20521;-81
2022/08/21 06:33:05;;;;;;;6.90;5.47;;;;;;;;;;5093559;28;21045;-81
2022/08/21 06:35:33;;;;;;;5.90;5.00;;;;;;;;;;5093940;28;20471;-80
2022/08/21 06:38:00;;;;;;;7.67;4.80;;;;;;;;;;5094639;28;20526;-81
2022/08/21 06:40:28;;;;;;;5.60;4.87;;;;;;;;;;5082337;28;20563;-80
2022/08/21 06:42:55;;;;;;;6.20;4.67;;;;;;;;;;5075047;28;20514;-81
2022/08/21 06:45:23;;;;;;;9.10;4.80;;;;;;;;;;5091620;28;20491;-80
2022/08/21 06:47:50;;;;;;;5.77;4.87;;;;;;;;;;5088583;28;20878;-81
2022/08/21 06:50:19;;;;;;;8.40;5.17;;;;;;;;;;5086298;28;20487;-80
2022/08/21 06:52:46;;;;;;;7.23;4.70;;;;;;;;;;5072488;28;20565;-80
2022/08/21 06:55:14;;;;;;;5.27;4.27;;;;;;;;;;5072894;28;21051;-80
2022/08/21 06:57:41;;;;;;;8.70;4.90;;;;;;;;;;5073196;28;20539;-80
2022/08/21 07:00:09;;;;;;;7.20;5.40;;;;;;;;;;5081175;28;20840;-80
2022/08/21 07:02:36;;;;;;;8.90;5.00;;;;;;;;;;5088587;28;20547;-81
2022/08/21 07:05:04;;;;;;;6.07;4.63;;;;;;;;;;5075307;28;20462;-80
2022/08/21 07:07:34;;;;;;;6.77;4.37;;;;;;;;;;5075454;28;20531;-81
2022/08/21 07:10:02;;;;;;;8.73;4.00;;;;;;;;;;5087775;28;20434;-81
2022/08/21 07:12:30;;;;;;;6.70;3.80;;;;;;;;;;5088244;28;20487;-79
2022/08/21 07:14:58;;;;;;;4.87;3.40;;;;;;;;;;5092670;28;20463;-80
2022/08/21 07:17:25;;;;;;;5.80;3.63;;;;;;;;;;5093060;28;20435;-80
2022/08/21 07:19:52;;;;;;;6.37;3.67;;;;;;;;;;5093218;28;20526;-81
2022/08/21 07:22:20;;;;;;;6.67;3.50;;;;;;;;;;5093803;28;20534;-78
2022/08/21 07:24:49;;;;;;;5.53;3.17;;;;;;;;;;5088305;28;20570;-79
2022/08/21 07:27:16;;;;;;;6.60;3.20;;;;;;;;;;5074666;28;20459;-80
2022/08/21 07:29:44;;;;;;;5.03;3.20;;;;;;;;;;5074634;28;20476;-81
2022/08/21 07:32:11;;;;;;;4.10;3.07;;;;;;;;;;5086663;28;20899;-81
2022/08/21 07:34:38;;;;;;;4.20;2.93;;;;;;;;;;5088060;28;20554;-81
2022/08/21 07:37:05;;;;;;;7.50;2.83;;;;;;;;;;5081120;28;20527;-80
2022/08/21 07:39:32;;;;;;;4.80;2.70;;;;;;;;;;5072240;28;20435;-80
2022/08/21 07:42:02;;;;;;;4.03;2.47;;;;;;;;;;5072329;28;20568;-79
2022/08/21 07:44:29;;;;;;;4.60;2.60;;;;;;;;;;5073132;28;20856;-82
2022/08/21 07:46:57;;;;;;;3.97;2.80;;;;;;;;;;5078389;28;20534;-81
2022/08/21 07:49:24;;;;;;;3.07;2.23;;;;;;;;;;5094700;28;20853;-81
2022/08/21 07:51:51;;;;;;;4.73;2.70;;;;;;;;;;5094633;28;20462;-80
2022/08/21 07:54:19;;;;;;;3.60;2.23;;;;;;;;;;5089772;28;20435;-80
2022/08/21 07:56:46;;;;;;;6.67;2.60;;;;;;;;;;5088409;28;20691;-81
2022/08/21 07:59:14;;;;;;;4.87;2.00;;;;;;;;;;5091297;28;20454;-82
2022/08/21 08:01:42;;;;;;;3.10;2.33;;;;;;;;;;5091778;28;20522;-81
2022/08/21 08:04:09;;;;;;;6.20;2.50;;;;;;;;;;5092425;28;20450;-80
2022/08/21 08:06:36;;;;;;;4.50;2.00;;;;;;;;;;5092878;28;20463;-80
2022/08/21 08:09:03;;;;;;;7.07;2.67;;;;;;;;;;5091431;28;20436;-81
2022/08/21 08:11:31;;;;;;;4.60;2.00;;;;;;;;;;5094535;28;20782;-80
2022/08/21 08:13:59;;;;;;;4.57;2.03;;;;;;;;;;5093485;28;21057;-80
2022/08/21 08:16:27;;;;;;;6.23;2.53;;;;;;;;;;5091194;28;20801;-80
2022/08/21 08:18:55;;;;;;;6.80;2.40;;;;;;;;;;5087761;28;20786;-81
2022/08/21 08:21:23;;;;;;;3.63;2.07;;;;;;;;;;5089677;28;20943;-81
2022/08/21 08:23:50;;;;;;;6.10;2.50;;;;;;;;;;5091996;28;20538;-82
2022/08/21 08:26:17;;;;;;;4.83;2.83;;;;;;;;;;5091794;28;20550;-82
2022/08/21 08:28:46;;;;;;;6.27;2.40;;;;;;;;;;5092176;28;20447;-83
2022/08/21 08:31:13;;;;;;;5.23;2.50;;;;;;;;;;5092201;28;20439;-84
2022/08/21 08:33:42;;;;;;;6.83;3.00;;;;;;;;;;5092396;28;20909;-80
2022/08/21 08:36:14;;;;;;;7.20;2.53;;;;;;;;;;5088252;28;20486;-81
2022/08/21 08:38:41;;;;;;;4.73;2.60;;;;;;;;;;5086870;28;20527;-80
2022/08/21 08:41:12;;;;;;;7.73;3.00;;;;;;;;;;5091174;28;20450;-82
2022/08/21 08:43:41;;;;;;;4.90;2.13;;;;;;;;;;5091575;28;20817;-80
2022/08/21 08:46:16;;;;;;;5.23;2.50;;;;;;;;;;5091598;28;20557;-82
2022/08/21 08:48:47;;;;;;;7.13;2.73;;;;;;;;;;5092300;28;20443;-81
2022/08/21 08:51:19;;;;;;;4.60;2.17;;;;;;;;;;5090687;28;20546;-81
2022/08/21 08:53:50;;;;;;;2.97;2.10;;;;;;;;;;5093841;28;20487;-81
2022/08/21 08:56:19;;;;;;;6.30;2.90;;;;;;;;;;5093890;28;20474;-82
2022/08/21 08:58:47;;;;;;;4.93;2.50;;;;;;;;;;5087858;28;20420;-80
2022/08/21 09:01:16;;;;;;;6.80;2.53;;;;;;;;;;5087536;28;21041;-82
2022/08/21 09:03:44;;;;;;;4.77;2.60;;;;;;;;;;5070884;28;20533;-80
2022/08/21 09:06:15;;;;;;;7.20;2.63;;;;;;;;;;5071055;28;20460;-80
2022/08/21 09:08:49;;;;;;;4.20;2.40;;;;;;;;;;5071381;28;20498;-80
2022/08/21 09:11:22;;;;;;;3.83;1.87;;;;;;;;;;5071784;28;20440;-83
2022/08/21 09:13:52;;;;;;;6.57;2.37;;;;;;;;;;5076820;28;20485;-82
2022/08/21 09:16:25;;;;;;;4.13;2.10;;;;;;;;;;5093570;28;20459;-80
2022/08/21 09:18:55;;;;;;;7.30;3.37;;;;;;;;;;5093659;28;20876;-79
2022/08/21 09:21:28;;;;;;;5.47;2.80;;;;;;;;;;5087845;28;20948;-78
2022/08/21 09:24:00;;;;;;;16.40;10.20;;;;;;;;;;5086930;28;20527;-79
2022/08/21 09:26:28;;;;;;;17.13;6.63;;;;;;;;;;5094673;28;20986;-80
2022/08/21 09:28:56;;;;;;;11.80;5.60;;;;;;;;;;5095151;28;20852;-80
2022/08/21 09:31:24;;;;;;;11.70;5.90;;;;;;;;;;5094273;28;20446;-80
2022/08/21 09:33:53;;;;;;;9.83;3.87;;;;;;;;;;5094905;28;20493;-81
2022/08/21 09:36:32;;;;;;;10.43;4.60;;;;;;;;;;5094791;28;20491;-81
2022/08/21 09:38:59;;;;;;;6.50;2.90;;;;;;;;;;5097491;28;20883;-80
2022/08/21 09:41:28;;;;;;;5.40;3.20;;;;;;;;;;5097448;28;20534;-80
2022/08/21 09:43:56;;;;;;;8.30;4.87;;;;;;;;;;5090564;28;20431;-80
2022/08/21 09:46:25;;;;;;;9.13;4.13;;;;;;;;;;5090565;28;20462;-82
2022/08/21 09:48:53;;;;;;;7.13;2.80;;;;;;;;;;5074041;28;20467;-78
2022/08/21 09:51:22;;;;;;;6.47;2.63;;;;;;;;;;5074472;28;20520;-80
2022/08/21 09:53:52;;;;;;;5.70;2.77;;;;;;;;;;5073431;28;20578;-79
2022/08/21 09:59:14;;;;;;;7.57;2.50;;;;;;;;;;5072278;28;20929;-80
2022/08/21 10:01:44;;;;;;;7.73;2.70;;;;;;;;;;5075544;28;20543;-77
2022/08/21 10:04:11;;;;;;;6.27;2.63;;;;;;;;;;5076527;28;20448;-81
2022/08/21 10:06:39;;;;;;;8.93;2.90;;;;;;;;;;5088140;28;20522;-84
2022/08/21 10:09:09;;;;;;;6.00;2.20;;;;;;;;;;5085956;28;20449;-84
2022/08/21 10:11:36;;;;;;;5.57;2.57;;;;;;;;;;5088329;28;20443;-82
2022/08/21 10:14:09;;;;;;;6.97;2.37;;;;;;;;;;5090721;28;20487;-80
2022/08/21 10:16:46;;;;;;;5.60;2.30;;;;;;;;;;5090665;28;20901;-80
2022/08/21 10:19:17;;;;;;;4.67;2.13;;;;;;;;;;5090806;28;20534;-81
2022/08/21 10:21:46;;;;;;;6.57;2.50;;;;;;;;;;5090436;28;20553;-82
2022/08/21 10:24:23;;;;;;;4.27;2.20;;;;;;;;;;5088667;28;20469;-80
2022/08/21 10:26:53;;;;;;;4.37;2.57;;;;;;;;;;5086540;28;20521;-80
2022/08/21 10:29:32;;;;;;;9.90;2.47;;;;;;;;;;5088942;28;21030;-81
2022/08/21 10:32:03;;;;;;;3.87;1.97;;;;;;;;;;5090671;28;20802;-83
2022/08/21 10:34:37;;;;;;;3.90;2.13;;;;;;;;;;5090161;28;20491;-80
2022/08/21 10:37:17;;;;;;;6.70;2.40;;;;;;;;;;5090702;28;20446;-81
2022/08/21 10:39:51;;;;;;;7.07;2.63;;;;;;;;;;5090350;28;20555;-81
2022/08/21 10:42:23;;;;;;;5.40;2.20;;;;;;;;;;5092396;28;20439;-81
2022/08/21 10:44:56;;;;;;;5.10;2.53;;;;;;;;;;5091901;28;20565;-80
2022/08/21 10:47:29;;;;;;;6.70;2.70;;;;;;;;;;5087204;28;20439;-83
2022/08/21 10:50:02;;;;;;;3.97;2.03;;;;;;;;;;5086564;28;20575;-82
2022/08/21 10:52:36;;;;;;;4.03;2.03;;;;;;;;;;5089801;28;20558;-81
2022/08/21 10:55:08;;;;;;;7.60;2.37;;;;;;;;;;5089716;28;20463;-83
2022/08/21 10:57:42;;;;;;;5.13;2.30;;;;;;;;;;5090314;28;20470;-82
2022/08/21 11:00:11;;;;;;;3.47;2.20;;;;;;;;;;5091144;28;20936;-81
2022/08/21 11:02:40;;;;;;;6.53;2.03;;;;;;;;;;5090772;28;21016;-81
2022/08/21 11:05:11;;;;;;;4.67;2.23;;;;;;;;;;5095719;28;20884;-81
2022/08/21 11:07:41;;;;;;;3.93;2.13;;;;;;;;;;5095301;28;21025;-82
2022/08/21 11:10:14;;;;;;;7.60;2.60;;;;;;;;;;5089362;28;20534;-82
2022/08/21 11:12:43;;;;;;;3.17;1.77;;;;;;;;;;5089228;28;20427;-83
2022/08/21 11:15:17;;;;;;;4.83;1.80;;;;;;;;;;5092640;28;20575;-83
2022/08/21 11:17:49;;;;;;;3.20;1.80;;;;;;;;;;5093019;28;20529;-83
2022/08/21 11:20:19;;;;;;;6.73;1.93;;;;;;;;;;5092166;28;20530;-83
2022/08/21 11:22:50;;;;;;;4.73;2.43;;;;;;;;;;5094003;28;21003;-82
2022/08/21 11:25:22;;;;;;;6.60;1.90;;;;;;;;;;5093597;28;20978;-82
2022/08/21 11:27:52;;;;;;;5.33;2.07;;;;;;;;;;5095312;28;20447;-82
2022/08/21 11:30:19;;;;;;;3.33;1.87;;;;;;;;;;5094722;28;20531;-81
2022/08/21 11:32:52;;;;;;;2.37;1.53;;;;;;;;;;5088598;28;20428;-81
2022/08/21 11:35:25;;;;;;;4.37;2.03;;;;;;;;;;5089205;28;20490;-81
2022/08/21 11:38:00;;;;;;;3.00;1.80;;;;;;;;;;5092680;28;20449;-81
2022/08/21 11:40:36;;;;;;;5.40;1.90;;;;;;;;;;5092740;28;20447;-83
2022/08/21 11:43:10;;;;;;;3.57;2.00;;;;;;;;;;5088114;28;20455;-82
2022/08/21 11:45:41;;;;;;;4.40;2.00;;;;;;;;;;5089768;28;20466;-82
2022/08/21 11:48:12;;;;;;;3.03;2.10;;;;;;;;;;5092147;28;20546;-82
2022/08/21 11:50:41;;;;;;;3.53;1.90;;;;;;;;;;5095456;28;20531;-83
2022/08/21 11:53:10;;;;;;;3.10;1.93;;;;;;;;;;5093650;28;20439;-80
2022/08/21 11:55:41;;;;;;;2.93;1.60;;;;;;;;;;5088060;28;20455;-85
2022/08/21 11:58:09;;;;;;;4.13;1.90;;;;;;;;;;5087885;28;20463;-83
2022/08/21 12:00:40;;;;;;;2.90;2.33;;;;;;;;;;5091364;28;20466;-82
2022/08/21 12:03:09;;;;;;;2.10;1.70;;;;;;;;;;5092474;28;20470;-84
2022/08/21 12:05:39;;;;;;;3.23;1.60;;;;;;;;;;5092309;28;20550;-83
2022/08/21 12:08:08;;;;;;;4.23;1.90;;;;;;;;;;5092950;28;20530;-84
2022/08/21 12:10:37;;;;;;;4.30;1.70;;;;;;;;;;5092887;28;20498;-82
2022/08/21 12:13:11;;;;;;;3.20;1.90;;;;;;;;;;5093441;28;20490;-82
2022/08/21 12:15:38;;;;;;;6.40;1.77;;;;;;;;;;5092739;28;20448;-82
2022/08/21 12:18:07;;;;;;;4.27;1.83;;;;;;;;;;5091373;28;20427;-85
2022/08/21 12:20:37;;;;;;;3.30;1.70;;;;;;;;;;5088889;28;20438;-83
2022/08/21 12:23:06;;;;;;;4.50;2.40;;;;;;;;;;5092102;28;20535;-85
2022/08/21 12:25:38;;;;;;;3.00;1.70;;;;;;;;;;5091130;28;20550;-82
2022/08/21 12:28:09;;;;;;;4.33;1.60;;;;;;;;;;5091041;28;20534;-83
2022/08/21 12:30:38;;;;;;;3.10;1.67;;;;;;;;;;5092744;28;20435;-82
2022/08/21 12:33:07;;;;;;;4.80;1.97;;;;;;;;;;5092725;28;20968;-82
2022/08/21 12:35:37;;;;;;;2.23;1.50;;;;;;;;;;5093567;28;20491;-81
2022/08/21 12:38:09;;;;;;;4.23;2.03;;;;;;;;;;5093353;28;20530;-82
2022/08/21 12:40:40;;;;;;;2.53;1.60;;;;;;;;;;5086315;28;20431;-82
2022/08/21 12:43:13;;;;;;;2.93;1.90;;;;;;;;;;5087304;28;20434;-82
2022/08/21 12:45:43;;;;;;;4.47;2.00;;;;;;;;;;5091499;28;20455;-80
2022/08/21 12:48:12;;;;;;;6.90;2.33;;;;;;;;;;5090301;28;20450;-82
2022/08/21 12:50:41;;;;;;;2.80;2.00;;;;;;;;;;5091828;28;20542;-81
2022/08/21 12:53:14;;;;;;;5.00;2.33;;;;;;;;;;5092480;28;20518;-82
2022/08/21 12:55:42;;;;;;;4.30;2.00;;;;;;;;;;5092038;28;20528;-83
2022/08/21 12:58:18;;;;;;;3.57;1.77;;;;;;;;;;5093880;28;20538;-83
2022/08/21 13:00:49;;;;;;;4.00;1.70;;;;;;;;;;5092188;28;20467;-84
2022/08/21 13:03:16;;;;;;;3.20;1.77;;;;;;;;;;5087426;28;20435;-82
2022/08/21 13:05:43;;;;;;;4.40;1.90;;;;;;;;;;5088146;28;20558;-82
2022/08/21 13:08:13;;;;;;;2.10;1.63;;;;;;;;;;5091476;28;20451;-85
2022/08/21 13:10:41;;;;;;;3.53;1.70;;;;;;;;;;5091325;28;20478;-86
2022/08/21 13:13:11;;;;;;;2.73;1.80;;;;;;;;;;5091404;28;20459;-86
2022/08/21 13:15:40;;;;;;;9.47;2.20;;;;;;;;;;5091947;28;20494;-86
2022/08/21 13:18:08;;;;;;;6.40;2.07;;;;;;;;;;5092050;28;20499;-84
2022/08/21 13:20:37;;;;;;;3.03;2.10;;;;;;;;;;5093623;28;20891;-85
2022/08/21 13:23:07;;;;;;;3.30;1.80;;;;;;;;;;5091992;28;20443;-85
2022/08/21 13:25:36;;;;;;;5.67;2.20;;;;;;;;;;5086803;28;20455;-86
2022/08/21 13:28:07;;;;;;;3.47;2.40;;;;;;;;;;5088287;28;20432;-85
2022/08/21 13:30:35;;;;;;;5.20;2.17;;;;;;;;;;5089917;28;20547;-87
2022/08/21 13:33:07;;;;;;;6.83;2.80;;;;;;;;;;5089921;28;20543;-86
2022/08/21 13:35:38;;;;;;;4.60;2.20;;;;;;;;;;5090770;28;20487;-85
2022/08/21 13:38:06;;;;;;;5.10;2.20;;;;;;;;;;5090366;28;20822;-86
2022/08/21 13:40:34;;;;;;;5.10;1.97;;;;;;;;;;5091862;28;20443;-87
2022/08/21 13:43:02;;;;;;;3.57;2.60;;;;;;;;;;5093954;28;20546;-86
2022/08/21 13:45:32;;;;;;;2.60;1.70;;;;;;;;;;5092185;28;20589;-86
2022/08/21 13:48:01;;;;;;;2.80;1.57;;;;;;;;;;5085644;28;20431;-86
2022/08/21 13:50:28;;;;;;;4.20;2.13;;;;;;;;;;5087437;28;20967;-87
2022/08/21 13:53:00;;;;;;;5.40;2.27;;;;;;;;;;5091140;28;20508;-84
2022/08/21 13:55:36;;;;;;;3.97;1.83;;;;;;;;;;5089989;28;20589;-86
2022/08/21 13:58:04;;;;;;;4.30;2.03;;;;;;;;;;5091312;28;20443;-85
2022/08/21 14:00:34;;;;;;;4.43;2.43;;;;;;;;;;5091593;28;20524;-86
2022/08/21 14:03:04;;;;;;;2.63;1.77;;;;;;;;;;5090231;28;20546;-86
2022/08/21 14:05:32;;;;;;;5.03;2.03;;;;;;;;;;5092032;28;20471;-85
2022/08/21 14:08:04;;;;;;;3.93;2.20;;;;;;;;;;5091441;28;20523;-85
2022/08/21 14:10:32;;;;;;;3.30;2.00;;;;;;;;;;5086702;28;20436;-85
2022/08/21 14:13:00;;;;;;;3.60;1.97;;;;;;;;;;5091063;28;20522;-86
2022/08/21 14:15:29;;;;;;;3.97;2.23;;;;;;;;;;5094198;28;20972;-87
2022/08/21 14:17:57;;;;;;;4.03;1.80;;;;;;;;;;5094812;28;20436;-86
2022/08/21 14:20:29;;;;;;;3.40;1.90;;;;;;;;;;5093409;28;20439;-85
2022/08/21 14:22:56;;;;;;;2.27;1.73;;;;;;;;;;5095332;28;20485;-86
2022/08/21 14:25:38;;;;;;;4.30;2.03;;;;;;;;;;5095080;28;20502;-86
2022/08/21 14:28:09;;;;;;;5.30;2.07;;;;;;;;;;5096477;28;20527;-87
2022/08/21 14:30:38;;;;;;;3.90;1.77;;;;;;;;;;5093935;28;20964;-84
2022/08/21 14:33:06;;;;;;;3.40;1.70;;;;;;;;;;5090018;28;20964;-84
2022/08/21 14:35:33;;;;;;;4.00;2.30;;;;;;;;;;5090169;28;20494;-88
2022/08/21 14:38:01;;;;;;;5.53;1.77;;;;;;;;;;5094018;28;20435;-86
2022/08/21 14:40:28;;;;;;;3.63;2.40;;;;;;;;;;5094192;28;20547;-87
2022/08/21 14:42:57;;;;;;;3.40;1.80;;;;;;;;;;5094244;28;20424;-87
2022/08/21 14:45:26;;;;;;;3.27;1.67;;;;;;;;;;5094780;28;20789;-86
2022/08/21 14:47:54;;;;;;;3.83;2.00;;;;;;;;;;5095074;28;20461;-86
2022/08/21 14:50:21;;;;;;;4.53;2.30;;;;;;;;;;5096327;28;20527;-85
2022/08/21 14:52:48;;;;;;;6.33;2.27;;;;;;;;;;5093243;28;20530;-85